Corwith Cramer — WTF3319 — position and weather

sailwx.info

Track history (hours):
 
Tides and Currents Weather Stations Pressure Air Temp Water Temp Dewpoint Dewpoint Depression Visibility Wind Speed Wind Dir Waves Ship Positions

Oceanographic research ship Corwith Cramer (USA)

Ship's website: http://www.sea.edu/sea2000/AboutSEA2000/cramer.htm

Detailed information on ship capabilities available from University of Delaware's Ocean Information Center.

Owner: SEA EDUCATION ASSOCIATION, WOODS HOLE, MA. More information available from US FCC via Universal Licensing System and Coast Guard Vessel Documentation Center.

Last reported at 2017-Feb-25 19:06 UTC. Time now 2017-Mar-25 09:36 UTC.
Position N 17°30' W 066°45'.
Warning: this ship's position is 27 days out of date.

Type: Sailing vessel. MMSI: 366724450.

Date/timePositionNaut miles runAvg speedWind from/ knotsBaromVisibWave heightAir tempDewpointWater temp
2017-Feb-25 19:06N 17°30' W 066°45'3 2.5
2017-Feb-25 18:05N 17°28' W 066°43'3 2.0
2017-Feb-25 16:31N 17°27' W 066°40'2 1.8
2017-Feb-25 15:33N 17°28' W 066°39'1 0.8
2017-Feb-25 14:19N 17°27' W 066°38'228 4.5
2017-Feb-23 11:21N 16°39' W 062°45'5 2.2
2017-Feb-23 09:03N 16°35' W 062°42'4 7.3
2017-Feb-23 08:30N 16°32' W 062°38'7 7.2
2017-Feb-23 07:30N 16°27' W 062°33'6 6.8
2017-Feb-23 06:33N 16°23' W 062°28'3 3.1
2017-Feb-23 05:32N 16°22' W 062°25'2 1.2
2017-Feb-23 03:33N 16°24' W 062°24'2 2.3
2017-Feb-23 02:33N 16°25' W 062°22'3 2.6
2017-Feb-23 01:33N 16°25' W 062°19'3 3.2
2017-Feb-23 00:33N 16°24' W 062°16'6 6.1
2017-Feb-22 23:33N 16°21' W 062°11'6 5.8
2017-Feb-22 22:33N 16°19' W 062°05'6 5.5
2017-Feb-22 21:33N 16°17' W 061°60'2 2.4
2017-Feb-22 20:33N 16°16' W 061°58'0 0.5
2017-Feb-22 19:33N 16°16' W 061°58'0 0.5
2017-Feb-22 18:33N 16°16' W 061°58'2 2.2
2017-Feb-22 17:33N 16°15' W 061°56'6 6.0
2017-Feb-22 16:33N 16°11' W 061°52'4 4.3
2017-Feb-22 15:33N 16°09' W 061°48'0 0.2
2017-Feb-22 14:33N 16°09' W 061°48'1 0.8
2017-Feb-22 13:28N 16°10' W 061°49'28 3.9
2017-Feb-22 06:20N 15°42' W 061°46'5 0.7
2017-Feb-21 23:29N 15°39' W 061°43'5 4.9
2017-Feb-21 22:32N 15°37' W 061°38'6 5.1
2017-Feb-21 21:16N 15°34' W 061°32'  
2017-Feb-18 21:09N 16°00' W 062°28'21 4.1
2017-Feb-18 16:06N 16°20' W 062°33'1 1.3
2017-Feb-18 15:33N 16°21' W 062°33'1 1.1
2017-Feb-18 14:30N 16°21' W 062°32'2 1.6
2017-Feb-18 13:23N 16°23' W 062°32'8 6.2
2017-Feb-18 12:05N 16°30' W 062°36'68 4.6
2017-Feb-17 21:19N 17°30' W 063°08'14 2.0
2017-Feb-17 14:33N 17°40' W 063°18'1 0.7
2017-Feb-17 13:29N 17°41' W 063°17'3 3.2
2017-Feb-17 12:32N 17°44' W 063°16'5 4.7
2017-Feb-17 11:30N 17°49' W 063°15'5 5.4
2017-Feb-17 10:33N 17°53' W 063°13'3 2.8
2017-Feb-17 09:28N 17°51' W 063°14'2 2.6
2017-Feb-17 08:32N 17°48' W 063°16'7 3.6
2017-Feb-17 06:32N 17°42' W 063°20'7 2.1
2017-Feb-17 03:17N 17°49' W 063°19'2 2.9
2017-Feb-17 02:33N 17°51' W 063°19'6 0.4
2017-Feb-16 11:26N 17°50' W 063°26'6 5.4
2017-Feb-16 10:25N 17°49' W 063°31'44 4.9
2017-Feb-16 01:28N 18°01' W 064°16'13 6.3
2017-Feb-15 23:21N 17°55' W 064°28'8 6.4
2017-Feb-15 22:04N 17°52' W 064°36'  
Track history (hours):
 
Tides and Currents Weather Stations Pressure Air Temp Water Temp Dewpoint Dewpoint Depression Visibility Wind Speed Wind Dir Waves Ship Positions

Oceanographic research ship Corwith Cramer (USA)

Ship's website: http://www.sea.edu/sea2000/AboutSEA2000/cramer.htm

Detailed information on ship capabilities available from University of Delaware's Ocean Information Center.

Owner: SEA EDUCATION ASSOCIATION, WOODS HOLE, MA. More information available from US FCC via Universal Licensing System and Coast Guard Vessel Documentation Center.

Last reported at 2017-Feb-25 19:06 UTC. Time now 2017-Mar-25 09:36 UTC.
Position N 17°30' W 066°45'.
Warning: this ship's position is 27 days out of date.

Type: Sailing vessel. MMSI: 366724450.

Date/timePositionNaut miles runAvg speedWind from/ knotsBaromVisibWave heightAir tempDewpointWater temp
2017-Feb-25 19:06N 17°30' W 066°45'3 2.5
2017-Feb-25 18:05N 17°28' W 066°43'3 2.0
2017-Feb-25 16:31N 17°27' W 066°40'2 1.8
2017-Feb-25 15:33N 17°28' W 066°39'1 0.8
2017-Feb-25 14:19N 17°27' W 066°38'228 4.5
2017-Feb-23 11:21N 16°39' W 062°45'5 2.2
2017-Feb-23 09:03N 16°35' W 062°42'4 7.3
2017-Feb-23 08:30N 16°32' W 062°38'7 7.2
2017-Feb-23 07:30N 16°27' W 062°33'6 6.8
2017-Feb-23 06:33N 16°23' W 062°28'3 3.1
2017-Feb-23 05:32N 16°22' W 062°25'2 1.2
2017-Feb-23 03:33N 16°24' W 062°24'2 2.3
2017-Feb-23 02:33N 16°25' W 062°22'3 2.6
2017-Feb-23 01:33N 16°25' W 062°19'3 3.2
2017-Feb-23 00:33N 16°24' W 062°16'6 6.1
2017-Feb-22 23:33N 16°21' W 062°11'6 5.8
2017-Feb-22 22:33N 16°19' W 062°05'6 5.5
2017-Feb-22 21:33N 16°17' W 061°60'2 2.4
2017-Feb-22 20:33N 16°16' W 061°58'0 0.5
2017-Feb-22 19:33N 16°16' W 061°58'0 0.5
2017-Feb-22 18:33N 16°16' W 061°58'2 2.2
2017-Feb-22 17:33N 16°15' W 061°56'6 6.0
2017-Feb-22 16:33N 16°11' W 061°52'4 4.3
2017-Feb-22 15:33N 16°09' W 061°48'0 0.2
2017-Feb-22 14:33N 16°09' W 061°48'1 0.8
2017-Feb-22 13:28N 16°10' W 061°49'28 3.9
2017-Feb-22 06:20N 15°42' W 061°46'5 0.7
2017-Feb-21 23:29N 15°39' W 061°43'5 4.9
2017-Feb-21 22:32N 15°37' W 061°38'6 5.1
2017-Feb-21 21:16N 15°34' W 061°32'  
2017-Feb-18 21:09N 16°00' W 062°28'21 4.1
2017-Feb-18 16:06N 16°20' W 062°33'1 1.3
2017-Feb-18 15:33N 16°21' W 062°33'1 1.1
2017-Feb-18 14:30N 16°21' W 062°32'2 1.6
2017-Feb-18 13:23N 16°23' W 062°32'8 6.2
2017-Feb-18 12:05N 16°30' W 062°36'68 4.6
2017-Feb-17 21:19N 17°30' W 063°08'14 2.0
2017-Feb-17 14:33N 17°40' W 063°18'1 0.7
2017-Feb-17 13:29N 17°41' W 063°17'3 3.2
2017-Feb-17 12:32N 17°44' W 063°16'5 4.7
2017-Feb-17 11:30N 17°49' W 063°15'5 5.4
2017-Feb-17 10:33N 17°53' W 063°13'3 2.8
2017-Feb-17 09:28N 17°51' W 063°14'2 2.6
2017-Feb-17 08:32N 17°48' W 063°16'7 3.6
2017-Feb-17 06:32N 17°42' W 063°20'7 2.1
2017-Feb-17 03:17N 17°49' W 063°19'2 2.9
2017-Feb-17 02:33N 17°51' W 063°19'6 0.4
2017-Feb-16 11:26N 17°50' W 063°26'6 5.4
2017-Feb-16 10:25N 17°49' W 063°31'44 4.9
2017-Feb-16 01:28N 18°01' W 064°16'13 6.3
2017-Feb-15 23:21N 17°55' W 064°28'8 6.4
2017-Feb-15 22:04N 17°52' W 064°36'  

Dump ship's entire track history